sensor_id;sensor_type;location;lat;lon;timestamp;temperature;humidity
5647;DHT22;2845;48.626;9.362;2023-11-18T00:00:06;8.80;99.90
5647;DHT22;2845;48.626;9.362;2023-11-18T00:02:45;5.70;99.90
5647;DHT22;2845;48.626;9.362;2023-11-18T00:05:20;5.60;99.90
5647;DHT22;2845;48.626;9.362;2023-11-18T00:07:56;5.60;99.90
5647;DHT22;2845;48.626;9.362;2023-11-18T00:10:30;8.70;99.90
5647;DHT22;2845;48.626;9.362;2023-11-18T00:15:41;5.60;99.90
5647;DHT22;2845;48.626;9.362;2023-11-18T00:18:19;9.90;99.90
5647;DHT22;2845;48.626;9.362;2023-11-18T00:20:53;2.20;99.90
5647;DHT22;2845;48.626;9.362;2023-11-18T00:23:30;10.10;99.90
5647;DHT22;2845;48.626;9.362;2023-11-18T00:26:04;6.90;99.90
5647;DHT22;2845;48.626;9.362;2023-11-18T00:28:42;5.80;99.90
5647;DHT22;2845;48.626;9.362;2023-11-18T00:31:17;9.40;99.90
5647;DHT22;2845;48.626;9.362;2023-11-18T00:33:51;7.50;99.90
5647;DHT22;2845;48.626;9.362;2023-11-18T00:36:26;5.70;99.90
5647;DHT22;2845;48.626;9.362;2023-11-18T00:39:01;7.80;99.90
5647;DHT22;2845;48.626;9.362;2023-11-18T00:44:13;5.70;99.90
5647;DHT22;2845;48.626;9.362;2023-11-18T00:46:47;9.50;99.90
5647;DHT22;2845;48.626;9.362;2023-11-18T00:49:22;4.90;99.90
5647;DHT22;2845;48.626;9.362;2023-11-18T00:51:58;5.60;99.90
5647;DHT22;2845;48.626;9.362;2023-11-18T00:54:34;5.60;99.90
5647;DHT22;2845;48.626;9.362;2023-11-18T00:57:09;5.60;99.90
5647;DHT22;2845;48.626;9.362;2023-11-18T01:02:20;5.60;99.90
5647;DHT22;2845;48.626;9.362;2023-11-18T01:04:55;8.40;99.90
5647;DHT22;2845;48.626;9.362;2023-11-18T01:07:29;5.90;99.90
5647;DHT22;2845;48.626;9.362;2023-11-18T01:10:04;5.60;99.90
5647;DHT22;2845;48.626;9.362;2023-11-18T01:12:39;5.70;99.90
5647;DHT22;2845;48.626;9.362;2023-11-18T01:15:15;5.60;99.90
5647;DHT22;2845;48.626;9.362;2023-11-18T01:17:49;5.70;99.90
5647;DHT22;2845;48.626;9.362;2023-11-18T01:20:24;4.30;99.90
5647;DHT22;2845;48.626;9.362;2023-11-18T01:22:59;5.70;99.90
5647;DHT22;2845;48.626;9.362;2023-11-18T01:25:33;5.70;99.90
5647;DHT22;2845;48.626;9.362;2023-11-18T01:28:08;5.70;99.90
5647;DHT22;2845;48.626;9.362;2023-11-18T01:30:44;5.70;99.90
5647;DHT22;2845;48.626;9.362;2023-11-18T01:33:19;6.30;99.90
5647;DHT22;2845;48.626;9.362;2023-11-18T01:35:53;6.80;99.90
5647;DHT22;2845;48.626;9.362;2023-11-18T01:38:27;9.00;99.90
5647;DHT22;2845;48.626;9.362;2023-11-18T01:41:04;8.50;99.90
5647;DHT22;2845;48.626;9.362;2023-11-18T01:43:39;5.70;99.90
5647;DHT22;2845;48.626;9.362;2023-11-18T01:46:16;5.90;99.90
5647;DHT22;2845;48.626;9.362;2023-11-18T01:48:52;10.30;99.90
5647;DHT22;2845;48.626;9.362;2023-11-18T01:51:27;5.50;99.90
5647;DHT22;2845;48.626;9.362;2023-11-18T01:54:04;8.30;99.90
5647;DHT22;2845;48.626;9.362;2023-11-18T01:56:39;5.90;99.90
5647;DHT22;2845;48.626;9.362;2023-11-18T01:59:14;6.30;99.90
5647;DHT22;2845;48.626;9.362;2023-11-18T02:01:53;5.90;99.90
5647;DHT22;2845;48.626;9.362;2023-11-18T02:04:31;10.50;99.90
5647;DHT22;2845;48.626;9.362;2023-11-18T02:07:06;8.60;99.90
5647;DHT22;2845;48.626;9.362;2023-11-18T02:09:42;8.80;99.90
5647;DHT22;2845;48.626;9.362;2023-11-18T02:12:23;9.90;99.90
5647;DHT22;2845;48.626;9.362;2023-11-18T02:15:00;5.70;99.90
5647;DHT22;2845;48.626;9.362;2023-11-18T02:17:38;9.80;99.90
5647;DHT22;2845;48.626;9.362;2023-11-18T02:20:14;7.60;99.90
5647;DHT22;2845;48.626;9.362;2023-11-18T02:22:52;2.10;99.90
5647;DHT22;2845;48.626;9.362;2023-11-18T02:25:27;4.80;99.90
5647;DHT22;2845;48.626;9.362;2023-11-18T02:28:04;7.50;99.90
5647;DHT22;2845;48.626;9.362;2023-11-18T02:30:39;8.50;99.90
5647;DHT22;2845;48.626;9.362;2023-11-18T02:33:18;7.90;99.90
5647;DHT22;2845;48.626;9.362;2023-11-18T02:36:01;8.70;99.90
5647;DHT22;2845;48.626;9.362;2023-11-18T02:38:46;8.90;99.90
5647;DHT22;2845;48.626;9.362;2023-11-18T02:41:25;8.00;99.90
5647;DHT22;2845;48.626;9.362;2023-11-18T02:44:04;8.50;99.90
5647;DHT22;2845;48.626;9.362;2023-11-18T02:46:43;5.70;99.90
5647;DHT22;2845;48.626;9.362;2023-11-18T02:49:18;7.80;99.90
5647;DHT22;2845;48.626;9.362;2023-11-18T02:51:53;7.60;99.90
5647;DHT22;2845;48.626;9.362;2023-11-18T02:54:28;5.60;99.90
5647;DHT22;2845;48.626;9.362;2023-11-18T02:57:02;9.80;99.90
5647;DHT22;2845;48.626;9.362;2023-11-18T02:59:38;5.40;99.90
5647;DHT22;2845;48.626;9.362;2023-11-18T03:02:13;5.40;99.90
5647;DHT22;2845;48.626;9.362;2023-11-18T03:04:48;6.90;99.90
5647;DHT22;2845;48.626;9.362;2023-11-18T03:07:22;8.40;99.90
5647;DHT22;2845;48.626;9.362;2023-11-18T03:09:57;3.60;99.90
5647;DHT22;2845;48.626;9.362;2023-11-18T03:12:32;8.40;99.90
5647;DHT22;2845;48.626;9.362;2023-11-18T03:15:09;7.00;99.90
5647;DHT22;2845;48.626;9.362;2023-11-18T03:17:45;5.50;99.90
5647;DHT22;2845;48.626;9.362;2023-11-18T03:20:22;8.60;99.90
5647;DHT22;2845;48.626;9.362;2023-11-18T03:23:00;6.00;99.90
5647;DHT22;2845;48.626;9.362;2023-11-18T03:25:35;6.30;99.90
5647;DHT22;2845;48.626;9.362;2023-11-18T03:28:10;8.70;99.90
5647;DHT22;2845;48.626;9.362;2023-11-18T03:30:46;5.20;99.90
5647;DHT22;2845;48.626;9.362;2023-11-18T03:33:21;9.70;99.90
5647;DHT22;2845;48.626;9.362;2023-11-18T03:35:56;8.50;99.90
5647;DHT22;2845;48.626;9.362;2023-11-18T03:38:31;7.00;99.90
5647;DHT22;2845;48.626;9.362;2023-11-18T03:41:06;7.50;99.90
5647;DHT22;2845;48.626;9.362;2023-11-18T03:43:42;7.70;99.90
5647;DHT22;2845;48.626;9.362;2023-11-18T03:46:18;8.30;99.90
5647;DHT22;2845;48.626;9.362;2023-11-18T03:48:52;7.90;99.90
5647;DHT22;2845;48.626;9.362;2023-11-18T03:51:27;8.10;99.90
5647;DHT22;2845;48.626;9.362;2023-11-18T03:54:02;5.70;99.90
5647;DHT22;2845;48.626;9.362;2023-11-18T03:56:37;5.40;99.90
5647;DHT22;2845;48.626;9.362;2023-11-18T03:59:12;8.30;99.90
5647;DHT22;2845;48.626;9.362;2023-11-18T04:01:48;5.30;99.90
5647;DHT22;2845;48.626;9.362;2023-11-18T04:04:23;5.00;99.90
5647;DHT22;2845;48.626;9.362;2023-11-18T04:06:58;1.60;99.90
5647;DHT22;2845;48.626;9.362;2023-11-18T04:09:34;8.60;99.90
5647;DHT22;2845;48.626;9.362;2023-11-18T04:12:08;9.60;99.90
5647;DHT22;2845;48.626;9.362;2023-11-18T04:14:43;4.90;99.90
5647;DHT22;2845;48.626;9.362;2023-11-18T04:17:19;8.00;99.90
5647;DHT22;2845;48.626;9.362;2023-11-18T04:19:54;5.00;99.90
5647;DHT22;2845;48.626;9.362;2023-11-18T04:22:29;9.00;99.90
5647;DHT22;2845;48.626;9.362;2023-11-18T04:25:05;9.10;99.90
5647;DHT22;2845;48.626;9.362;2023-11-18T04:27:40;4.90;99.90
5647;DHT22;2845;48.626;9.362;2023-11-18T04:30:18;7.10;99.90
5647;DHT22;2845;48.626;9.362;2023-11-18T04:32:55;8.30;99.90
5647;DHT22;2845;48.626;9.362;2023-11-18T04:35:31;5.00;99.90
5647;DHT22;2845;48.626;9.362;2023-11-18T04:38:07;6.50;99.90
5647;DHT22;2845;48.626;9.362;2023-11-18T04:40:42;7.90;99.90
5647;DHT22;2845;48.626;9.362;2023-11-18T04:43:17;4.80;99.90
5647;DHT22;2845;48.626;9.362;2023-11-18T04:46:06;7.30;99.90
5647;DHT22;2845;48.626;9.362;2023-11-18T04:48:42;4.70;99.90
5647;DHT22;2845;48.626;9.362;2023-11-18T04:51:17;8.50;99.90
5647;DHT22;2845;48.626;9.362;2023-11-18T04:53:52;9.10;99.90
5647;DHT22;2845;48.626;9.362;2023-11-18T04:56:27;4.50;99.90
5647;DHT22;2845;48.626;9.362;2023-11-18T04:59:06;2.90;99.90
5647;DHT22;2845;48.626;9.362;2023-11-18T05:01:40;6.30;99.90
5647;DHT22;2845;48.626;9.362;2023-11-18T05:04:17;5.60;99.90
5647;DHT22;2845;48.626;9.362;2023-11-18T05:06:52;6.50;99.90
5647;DHT22;2845;48.626;9.362;2023-11-18T05:09:27;0.90;99.90
5647;DHT22;2845;48.626;9.362;2023-11-18T05:12:01;5.00;99.90
5647;DHT22;2845;48.626;9.362;2023-11-18T05:14:41;4.00;99.90
5647;DHT22;2845;48.626;9.362;2023-11-18T05:17:16;4.10;99.90
5647;DHT22;2845;48.626;9.362;2023-11-18T05:19:52;6.20;99.90
5647;DHT22;2845;48.626;9.362;2023-11-18T05:22:27;8.40;99.90
5647;DHT22;2845;48.626;9.362;2023-11-18T05:25:04;2.60;99.90
5647;DHT22;2845;48.626;9.362;2023-11-18T05:27:41;3.60;99.90
5647;DHT22;2845;48.626;9.362;2023-11-18T05:30:17;8.90;99.90
5647;DHT22;2845;48.626;9.362;2023-11-18T05:32:52;6.50;99.90
5647;DHT22;2845;48.626;9.362;2023-11-18T05:35:31;3.60;99.90
5647;DHT22;2845;48.626;9.362;2023-11-18T05:38:08;5.40;99.90
5647;DHT22;2845;48.626;9.362;2023-11-18T05:40:45;3.50;99.90
5647;DHT22;2845;48.626;9.362;2023-11-18T05:43:30;4.60;99.90
5647;DHT22;2845;48.626;9.362;2023-11-18T05:46:13;4.50;99.90
5647;DHT22;2845;48.626;9.362;2023-11-18T05:48:54;5.10;99.90
5647;DHT22;2845;48.626;9.362;2023-11-18T05:51:30;6.80;99.90
5647;DHT22;2845;48.626;9.362;2023-11-18T05:54:06;5.30;99.90
5647;DHT22;2845;48.626;9.362;2023-11-18T05:56:40;6.50;99.90
5647;DHT22;2845;48.626;9.362;2023-11-18T05:59:15;4.70;99.90
5647;DHT22;2845;48.626;9.362;2023-11-18T06:01:50;5.80;99.90
5647;DHT22;2845;48.626;9.362;2023-11-18T06:04:26;6.70;99.90
5647;DHT22;2845;48.626;9.362;2023-11-18T06:07:02;8.90;99.90
5647;DHT22;2845;48.626;9.362;2023-11-18T06:09:37;1.80;99.90
5647;DHT22;2845;48.626;9.362;2023-11-18T06:12:13;4.40;99.90
5647;DHT22;2845;48.626;9.362;2023-11-18T06:14:52;5.40;99.90
5647;DHT22;2845;48.626;9.362;2023-11-18T06:17:28;6.90;99.90
5647;DHT22;2845;48.626;9.362;2023-11-18T06:20:04;4.50;99.90
5647;DHT22;2845;48.626;9.362;2023-11-18T06:22:41;2.60;99.90
5647;DHT22;2845;48.626;9.362;2023-11-18T06:25:16;7.40;99.90
5647;DHT22;2845;48.626;9.362;2023-11-18T06:27:51;8.30;99.90
5647;DHT22;2845;48.626;9.362;2023-11-18T06:30:26;4.10;99.90
5647;DHT22;2845;48.626;9.362;2023-11-18T06:33:01;5.50;99.90
5647;DHT22;2845;48.626;9.362;2023-11-18T06:35:37;3.50;99.90
5647;DHT22;2845;48.626;9.362;2023-11-18T06:38:14;4.20;99.90
5647;DHT22;2845;48.626;9.362;2023-11-18T06:40:51;6.00;99.90
5647;DHT22;2845;48.626;9.362;2023-11-18T06:43:26;7.60;99.90
5647;DHT22;2845;48.626;9.362;2023-11-18T06:46:09;5.80;99.90
5647;DHT22;2845;48.626;9.362;2023-11-18T06:48:48;6.40;99.90
5647;DHT22;2845;48.626;9.362;2023-11-18T06:51:24;8.50;99.90
5647;DHT22;2845;48.626;9.362;2023-11-18T06:54:02;4.70;99.90
5647;DHT22;2845;48.626;9.362;2023-11-18T06:56:43;4.70;99.90
5647;DHT22;2845;48.626;9.362;2023-11-18T06:59:18;4.60;99.90
5647;DHT22;2845;48.626;9.362;2023-11-18T07:01:53;4.40;99.90
5647;DHT22;2845;48.626;9.362;2023-11-18T07:04:28;7.80;99.90
5647;DHT22;2845;48.626;9.362;2023-11-18T07:07:04;7.70;99.90
5647;DHT22;2845;48.626;9.362;2023-11-18T07:09:43;5.20;99.90
5647;DHT22;2845;48.626;9.362;2023-11-18T07:12:22;4.70;99.90
5647;DHT22;2845;48.626;9.362;2023-11-18T07:14:59;3.90;99.90
5647;DHT22;2845;48.626;9.362;2023-11-18T07:17:34;4.90;99.90
5647;DHT22;2845;48.626;9.362;2023-11-18T07:20:09;7.40;99.90
5647;DHT22;2845;48.626;9.362;2023-11-18T07:22:46;5.00;99.90
5647;DHT22;2845;48.626;9.362;2023-11-18T07:25:22;7.00;99.90
5647;DHT22;2845;48.626;9.362;2023-11-18T07:27:56;7.70;99.90
5647;DHT22;2845;48.626;9.362;2023-11-18T07:30:34;3.10;99.90
5647;DHT22;2845;48.626;9.362;2023-11-18T07:33:10;2.40;99.90
5647;DHT22;2845;48.626;9.362;2023-11-18T07:35:45;2.60;99.90
5647;DHT22;2845;48.626;9.362;2023-11-18T07:38:25;5.50;99.90
5647;DHT22;2845;48.626;9.362;2023-11-18T07:41:25;3.50;99.90
5647;DHT22;2845;48.626;9.362;2023-11-18T07:44:05;4.50;99.90
5647;DHT22;2845;48.626;9.362;2023-11-18T07:46:49;4.60;99.90
5647;DHT22;2845;48.626;9.362;2023-11-18T07:49:24;4.70;99.90
5647;DHT22;2845;48.626;9.362;2023-11-18T07:51:59;4.80;99.90
5647;DHT22;2845;48.626;9.362;2023-11-18T07:54:34;4.90;99.90
5647;DHT22;2845;48.626;9.362;2023-11-18T07:57:10;5.00;99.90
5647;DHT22;2845;48.626;9.362;2023-11-18T07:59:45;6.60;99.90
5647;DHT22;2845;48.626;9.362;2023-11-18T08:02:24;9.50;99.90
5647;DHT22;2845;48.626;9.362;2023-11-18T08:04:58;5.10;99.90
5647;DHT22;2845;48.626;9.362;2023-11-18T08:07:33;5.20;99.90
5647;DHT22;2845;48.626;9.362;2023-11-18T08:10:08;5.30;99.90
5647;DHT22;2845;48.626;9.362;2023-11-18T08:12:47;5.40;99.90
5647;DHT22;2845;48.626;9.362;2023-11-18T08:15:38;6.80;99.90
5647;DHT22;2845;48.626;9.362;2023-11-18T08:19:26;5.70;99.90
5647;DHT22;2845;48.626;9.362;2023-11-18T08:23:06;5.10;99.90
5647;DHT22;2845;48.626;9.362;2023-11-18T08:25:41;5.80;99.90
5647;DHT22;2845;48.626;9.362;2023-11-18T08:28:18;5.90;99.90
5647;DHT22;2845;48.626;9.362;2023-11-18T08:30:53;6.00;99.90
5647;DHT22;2845;48.626;9.362;2023-11-18T08:33:28;6.20;99.90
5647;DHT22;2845;48.626;9.362;2023-11-18T08:36:03;6.30;99.90
5647;DHT22;2845;48.626;9.362;2023-11-18T08:38:38;6.30;99.90
5647;DHT22;2845;48.626;9.362;2023-11-18T08:41:13;7.00;99.90
5647;DHT22;2845;48.626;9.362;2023-11-18T08:43:49;6.50;99.90
5647;DHT22;2845;48.626;9.362;2023-11-18T08:46:24;7.20;99.90
5647;DHT22;2845;48.626;9.362;2023-11-18T08:48:59;6.70;99.90
5647;DHT22;2845;48.626;9.362;2023-11-18T08:51:42;6.80;99.90
5647;DHT22;2845;48.626;9.362;2023-11-18T08:54:16;6.70;99.90
5647;DHT22;2845;48.626;9.362;2023-11-18T08:56:58;6.80;99.90
5647;DHT22;2845;48.626;9.362;2023-11-18T08:59:33;8.10;99.90
5647;DHT22;2845;48.626;9.362;2023-11-18T09:02:08;6.90;99.90
5647;DHT22;2845;48.626;9.362;2023-11-18T09:04:48;9.40;99.90
5647;DHT22;2845;48.626;9.362;2023-11-18T09:07:22;7.00;99.90
5647;DHT22;2845;48.626;9.362;2023-11-18T09:09:56;7.00;99.90
5647;DHT22;2845;48.626;9.362;2023-11-18T09:12:31;7.00;99.90
5647;DHT22;2845;48.626;9.362;2023-11-18T09:15:07;7.00;99.90
5647;DHT22;2845;48.626;9.362;2023-11-18T09:17:42;7.00;99.90
5647;DHT22;2845;48.626;9.362;2023-11-18T09:20:17;7.00;99.90
5647;DHT22;2845;48.626;9.362;2023-11-18T09:22:55;7.10;99.90
5647;DHT22;2845;48.626;9.362;2023-11-18T09:25:29;8.10;99.90
5647;DHT22;2845;48.626;9.362;2023-11-18T09:28:05;8.30;99.90
5647;DHT22;2845;48.626;9.362;2023-11-18T09:30:45;8.30;99.90
5647;DHT22;2845;48.626;9.362;2023-11-18T09:33:24;7.00;99.90
5647;DHT22;2845;48.626;9.362;2023-11-18T09:36:03;7.00;99.90
5647;DHT22;2845;48.626;9.362;2023-11-18T09:38:40;7.00;99.90
5647;DHT22;2845;48.626;9.362;2023-11-18T09:41:18;7.10;99.90
5647;DHT22;2845;48.626;9.362;2023-11-18T09:43:52;7.20;99.90
5647;DHT22;2845;48.626;9.362;2023-11-18T09:46:32;7.30;99.90
5647;DHT22;2845;48.626;9.362;2023-11-18T09:49:26;7.80;99.90
5647;DHT22;2845;48.626;9.362;2023-11-18T09:52:07;7.60;99.90
5647;DHT22;2845;48.626;9.362;2023-11-18T09:54:48;7.70;99.90
5647;DHT22;2845;48.626;9.362;2023-11-18T09:57:31;7.80;99.90
5647;DHT22;2845;48.626;9.362;2023-11-18T10:00:07;8.00;99.90
5647;DHT22;2845;48.626;9.362;2023-11-18T10:02:55;8.00;99.90
5647;DHT22;2845;48.626;9.362;2023-11-18T10:05:30;8.10;99.90
5647;DHT22;2845;48.626;9.362;2023-11-18T10:08:06;8.80;99.90
5647;DHT22;2845;48.626;9.362;2023-11-18T10:10:41;8.30;99.90
5647;DHT22;2845;48.626;9.362;2023-11-18T10:13:19;8.40;99.90
5647;DHT22;2845;48.626;9.362;2023-11-18T10:15:55;8.50;99.90
5647;DHT22;2845;48.626;9.362;2023-11-18T10:18:31;8.60;99.60
5647;DHT22;2845;48.626;9.362;2023-11-18T10:21:09;8.80;99.50
5647;DHT22;2845;48.626;9.362;2023-11-18T10:23:59;8.90;99.10
5647;DHT22;2845;48.626;9.362;2023-11-18T10:26:35;8.80;98.40
5647;DHT22;2845;48.626;9.362;2023-11-18T10:29:11;8.90;98.70
5647;DHT22;2845;48.626;9.362;2023-11-18T10:31:46;9.00;98.80
5647;DHT22;2845;48.626;9.362;2023-11-18T10:34:22;9.10;98.90
5647;DHT22;2845;48.626;9.362;2023-11-18T10:36:59;10.10;99.20
5647;DHT22;2845;48.626;9.362;2023-11-18T10:39:36;9.30;98.70
5647;DHT22;2845;48.626;9.362;2023-11-18T10:42:11;9.30;98.50
5647;DHT22;2845;48.626;9.362;2023-11-18T10:44:55;9.40;98.40
5647;DHT22;2845;48.626;9.362;2023-11-18T10:47:33;9.40;98.30
5647;DHT22;2845;48.626;9.362;2023-11-18T10:50:10;9.40;98.30
5647;DHT22;2845;48.626;9.362;2023-11-18T10:52:46;9.40;97.90
5647;DHT22;2845;48.626;9.362;2023-11-18T10:55:21;9.40;97.60
5647;DHT22;2845;48.626;9.362;2023-11-18T10:57:58;9.40;97.30
5647;DHT22;2845;48.626;9.362;2023-11-18T11:00:46;9.50;97.80
5647;DHT22;2845;48.626;9.362;2023-11-18T11:03:22;9.50;97.80
5647;DHT22;2845;48.626;9.362;2023-11-18T11:08:37;9.60;97.60
5647;DHT22;2845;48.626;9.362;2023-11-18T11:11:14;9.60;97.40
5647;DHT22;2845;48.626;9.362;2023-11-18T11:13:53;9.60;97.50
5647;DHT22;2845;48.626;9.362;2023-11-18T11:16:36;9.50;97.50
5647;DHT22;2845;48.626;9.362;2023-11-18T11:19:20;9.50;97.60
5647;DHT22;2845;48.626;9.362;2023-11-18T11:24:54;9.60;97.60
5647;DHT22;2845;48.626;9.362;2023-11-18T11:27:43;12.30;98.40
5647;DHT22;2845;48.626;9.362;2023-11-18T11:30:28;9.70;97.90
5647;DHT22;2845;48.626;9.362;2023-11-18T11:33:09;9.70;97.60
5647;DHT22;2845;48.626;9.362;2023-11-18T11:35:55;9.80;97.60
5647;DHT22;2845;48.626;9.362;2023-11-18T11:41:09;9.90;97.10
5647;DHT22;2845;48.626;9.362;2023-11-18T11:43:52;10.20;97.30
5647;DHT22;2845;48.626;9.362;2023-11-18T11:46:32;9.90;97.30
5647;DHT22;2845;48.626;9.362;2023-11-18T11:49:10;10.00;97.40
5647;DHT22;2845;48.626;9.362;2023-11-18T11:52:00;10.00;97.30
5647;DHT22;2845;48.626;9.362;2023-11-18T11:54:45;10.00;97.00
5647;DHT22;2845;48.626;9.362;2023-11-18T11:57:29;9.90;96.70
5647;DHT22;2845;48.626;9.362;2023-11-18T12:00:09;9.90;96.80
5647;DHT22;2845;48.626;9.362;2023-11-18T12:02:50;9.90;96.90
5647;DHT22;2845;48.626;9.362;2023-11-18T12:05:29;9.90;97.10
5647;DHT22;2845;48.626;9.362;2023-11-18T12:08:08;9.90;97.20
5647;DHT22;2845;48.626;9.362;2023-11-18T12:10:53;9.90;97.10
5647;DHT22;2845;48.626;9.362;2023-11-18T12:13:29;10.00;97.30
5647;DHT22;2845;48.626;9.362;2023-11-18T12:16:07;10.00;97.30
5647;DHT22;2845;48.626;9.362;2023-11-18T12:18:43;9.90;97.30
5647;DHT22;2845;48.626;9.362;2023-11-18T12:21:59;10.50;97.40
5647;DHT22;2845;48.626;9.362;2023-11-18T12:24:47;9.80;97.20
5647;DHT22;2845;48.626;9.362;2023-11-18T12:28:30;9.70;97.30
5647;DHT22;2845;48.626;9.362;2023-11-18T12:31:09;9.90;97.70
5647;DHT22;2845;48.626;9.362;2023-11-18T14:57:00;8.00;97.30
5647;DHT22;2845;48.626;9.362;2023-11-18T14:59:36;8.00;97.30
5647;DHT22;2845;48.626;9.362;2023-11-18T15:02:10;8.00;97.30
5647;DHT22;2845;48.626;9.362;2023-11-18T15:04:46;10.40;97.70
5647;DHT22;2845;48.626;9.362;2023-11-18T15:07:21;7.50;97.20
5647;DHT22;2845;48.626;9.362;2023-11-18T15:09:56;8.00;97.40
5647;DHT22;2845;48.626;9.362;2023-11-18T15:12:31;7.90;97.50
5647;DHT22;2845;48.626;9.362;2023-11-18T15:15:07;7.90;97.50
5647;DHT22;2845;48.626;9.362;2023-11-18T15:17:49;7.90;97.20
5647;DHT22;2845;48.626;9.362;2023-11-18T15:20:52;10.20;97.70
5647;DHT22;2845;48.626;9.362;2023-11-18T15:23:56;7.90;97.20
5647;DHT22;2845;48.626;9.362;2023-11-18T15:27:17;7.90;97.70
5647;DHT22;2845;48.626;9.362;2023-11-18T15:34:51;8.10;97.40
5647;DHT22;2845;48.626;9.362;2023-11-18T15:37:57;7.90;97.40
5647;DHT22;2845;48.626;9.362;2023-11-18T15:41:30;7.90;97.90
5647;DHT22;2845;48.626;9.362;2023-11-18T15:44:54;7.90;98.00
5647;DHT22;2845;48.626;9.362;2023-11-18T15:48:17;8.00;98.20
5647;DHT22;2845;48.626;9.362;2023-11-18T15:55:01;7.70;97.60
5647;DHT22;2845;48.626;9.362;2023-11-18T15:58:21;9.30;98.20
5647;DHT22;2845;48.626;9.362;2023-11-18T16:01:58;8.10;97.90
5647;DHT22;2845;48.626;9.362;2023-11-18T16:05:18;8.70;98.40
5647;DHT22;2845;48.626;9.362;2023-11-18T16:13:03;6.90;97.70
5647;DHT22;2845;48.626;9.362;2023-11-18T16:16:05;8.20;98.70
5647;DHT22;2845;48.626;9.362;2023-11-18T16:19:57;8.50;98.40
5647;DHT22;2845;48.626;9.362;2023-11-18T16:23:02;8.60;99.10
5647;DHT22;2845;48.626;9.362;2023-11-18T16:30:23;9.00;99.00
5647;DHT22;2845;48.626;9.362;2023-11-18T16:33:44;7.60;98.50
5647;DHT22;2845;48.626;9.362;2023-11-18T16:37:24;9.70;99.00
5647;DHT22;2845;48.626;9.362;2023-11-18T16:40:46;10.10;99.90
5647;DHT22;2845;48.626;9.362;2023-11-18T16:43:23;7.60;98.70
5647;DHT22;2845;48.626;9.362;2023-11-18T16:45:58;7.80;98.90
5647;DHT22;2845;48.626;9.362;2023-11-18T16:48:32;12.00;99.80
5647;DHT22;2845;48.626;9.362;2023-11-18T16:51:07;7.60;98.70
5647;DHT22;2845;48.626;9.362;2023-11-18T16:53:41;7.70;98.70
5647;DHT22;2845;48.626;9.362;2023-11-18T16:56:15;7.60;98.60
5647;DHT22;2845;48.626;9.362;2023-11-18T17:01:26;7.70;98.20
5647;DHT22;2845;48.626;9.362;2023-11-18T17:04:01;7.70;97.90
5647;DHT22;2845;48.626;9.362;2023-11-18T17:06:35;7.70;97.60
5647;DHT22;2845;48.626;9.362;2023-11-18T17:09:11;7.70;97.20
5647;DHT22;2845;48.626;9.362;2023-11-18T17:11:47;9.70;97.80
5647;DHT22;2845;48.626;9.362;2023-11-18T17:14:23;8.00;97.40
5647;DHT22;2845;48.626;9.362;2023-11-18T17:16:57;11.90;97.50
5647;DHT22;2845;48.626;9.362;2023-11-18T17:19:33;7.70;96.80
5647;DHT22;2845;48.626;9.362;2023-11-18T17:22:07;7.70;96.90
5647;DHT22;2845;48.626;9.362;2023-11-18T17:24:44;5.90;96.50
5647;DHT22;2845;48.626;9.362;2023-11-18T17:27:20;7.70;96.80
5647;DHT22;2845;48.626;9.362;2023-11-18T17:29:58;7.70;96.80
5647;DHT22;2845;48.626;9.362;2023-11-18T17:32:32;7.70;96.80
5647;DHT22;2845;48.626;9.362;2023-11-18T17:35:09;9.20;97.20
5647;DHT22;2845;48.626;9.362;2023-11-18T17:37:49;7.70;96.90
5647;DHT22;2845;48.626;9.362;2023-11-18T17:40:23;9.00;97.30
5647;DHT22;2845;48.626;9.362;2023-11-18T17:42:57;9.50;97.50
5647;DHT22;2845;48.626;9.362;2023-11-18T17:45:33;7.70;97.00
5647;DHT22;2845;48.626;9.362;2023-11-18T17:48:08;7.70;97.00
5647;DHT22;2845;48.626;9.362;2023-11-18T17:50:42;7.80;96.90
5647;DHT22;2845;48.626;9.362;2023-11-18T17:53:17;5.90;96.20
5647;DHT22;2845;48.626;9.362;2023-11-18T17:55:51;7.90;96.80
5647;DHT22;2845;48.626;9.362;2023-11-18T17:58:26;9.00;96.80
5647;DHT22;2845;48.626;9.362;2023-11-18T18:01:02;7.70;96.60
5647;DHT22;2845;48.626;9.362;2023-11-18T18:03:39;7.70;96.50
5647;DHT22;2845;48.626;9.362;2023-11-18T18:06:15;7.80;96.50
5647;DHT22;2845;48.626;9.362;2023-11-18T18:08:50;8.60;96.80
5647;DHT22;2845;48.626;9.362;2023-11-18T18:11:24;8.00;96.30
5647;DHT22;2845;48.626;9.362;2023-11-18T18:13:58;7.80;96.20
5647;DHT22;2845;48.626;9.362;2023-11-18T18:19:10;7.80;96.20
5647;DHT22;2845;48.626;9.362;2023-11-18T18:21:44;10.50;97.10
5647;DHT22;2845;48.626;9.362;2023-11-18T18:24:20;8.90;96.90
5647;DHT22;2845;48.626;9.362;2023-11-18T18:26:55;9.90;97.20
5647;DHT22;2845;48.626;9.362;2023-11-18T18:29:29;8.80;97.10
5647;DHT22;2845;48.626;9.362;2023-11-18T18:32:06;9.10;97.20
5647;DHT22;2845;48.626;9.362;2023-11-18T18:34:43;7.90;97.00
5647;DHT22;2845;48.626;9.362;2023-11-18T18:37:18;7.90;96.90
5647;DHT22;2845;48.626;9.362;2023-11-18T18:39:54;7.90;96.90
5647;DHT22;2845;48.626;9.362;2023-11-18T18:42:29;8.40;97.00
5647;DHT22;2845;48.626;9.362;2023-11-18T18:45:05;7.90;96.40
5647;DHT22;2845;48.626;9.362;2023-11-18T18:47:42;7.90;96.50
5647;DHT22;2845;48.626;9.362;2023-11-18T18:50:16;7.90;96.20
5647;DHT22;2845;48.626;9.362;2023-11-18T18:52:52;7.90;96.30
5647;DHT22;2845;48.626;9.362;2023-11-18T18:55:26;7.90;96.40
5647;DHT22;2845;48.626;9.362;2023-11-18T18:58:04;7.90;96.50
5647;DHT22;2845;48.626;9.362;2023-11-18T19:00:39;7.90;96.60
5647;DHT22;2845;48.626;9.362;2023-11-18T19:03:15;7.80;96.60
5647;DHT22;2845;48.626;9.362;2023-11-18T19:05:50;8.20;97.10
5647;DHT22;2845;48.626;9.362;2023-11-18T19:08:24;7.80;97.00
5647;DHT22;2845;48.626;9.362;2023-11-18T19:10:59;5.30;96.60
5647;DHT22;2845;48.626;9.362;2023-11-18T19:13:33;9.00;97.50
5647;DHT22;2845;48.626;9.362;2023-11-18T19:16:08;7.80;97.50
5647;DHT22;2845;48.626;9.362;2023-11-18T19:18:45;7.80;97.70
5647;DHT22;2845;48.626;9.362;2023-11-18T19:21:20;7.80;97.90
5647;DHT22;2845;48.626;9.362;2023-11-18T19:23:57;7.70;98.10
5647;DHT22;2845;48.626;9.362;2023-11-18T19:26:32;7.70;98.20
5647;DHT22;2845;48.626;9.362;2023-11-18T19:29:09;7.70;98.30
5647;DHT22;2845;48.626;9.362;2023-11-18T19:31:43;7.70;98.50
5647;DHT22;2845;48.626;9.362;2023-11-18T19:37:03;7.60;98.70
5647;DHT22;2845;48.626;9.362;2023-11-18T19:40:45;10.10;99.60
5647;DHT22;2845;48.626;9.362;2023-11-18T19:44:17;4.60;99.30
5647;DHT22;2845;48.626;9.362;2023-11-18T19:47:39;7.70;99.60
5647;DHT22;2845;48.626;9.362;2023-11-18T19:55:09;10.70;99.90
5647;DHT22;2845;48.626;9.362;2023-11-18T20:02:49;7.60;99.90
5647;DHT22;2845;48.626;9.362;2023-11-18T20:06:39;7.70;99.90
5647;DHT22;2845;48.626;9.362;2023-11-18T20:10:19;7.90;99.90
5647;DHT22;2845;48.626;9.362;2023-11-18T20:13:57;7.40;99.90
5647;DHT22;2845;48.626;9.362;2023-11-18T20:17:15;7.70;99.90
5647;DHT22;2845;48.626;9.362;2023-11-18T20:20:47;9.90;99.90
5647;DHT22;2845;48.626;9.362;2023-11-18T20:26:26;7.70;99.90
5647;DHT22;2845;48.626;9.362;2023-11-18T20:29:54;7.70;99.90
5647;DHT22;2845;48.626;9.362;2023-11-18T20:33:26;7.80;99.90
5647;DHT22;2845;48.626;9.362;2023-11-18T20:36:58;7.70;99.90
5647;DHT22;2845;48.626;9.362;2023-11-18T20:44:03;5.90;99.90
5647;DHT22;2845;48.626;9.362;2023-11-18T20:46:39;8.00;99.90
5647;DHT22;2845;48.626;9.362;2023-11-18T20:49:17;9.90;99.90
5647;DHT22;2845;48.626;9.362;2023-11-18T20:51:53;9.00;99.90
5647;DHT22;2845;48.626;9.362;2023-11-18T20:54:27;7.30;99.90
5647;DHT22;2845;48.626;9.362;2023-11-18T20:57:02;7.50;99.90
5647;DHT22;2845;48.626;9.362;2023-11-18T20:59:39;7.50;99.90
5647;DHT22;2845;48.626;9.362;2023-11-18T21:02:13;7.50;99.90
5647;DHT22;2845;48.626;9.362;2023-11-18T21:04:47;8.00;99.90
5647;DHT22;2845;48.626;9.362;2023-11-18T21:07:23;8.00;99.90